createdAt,value
2022-11-29T00:00:30.946Z,0.75
2022-11-29T00:03:39.454Z,0.79
2022-11-29T00:07:08.834Z,0.76
2022-11-29T00:10:38.229Z,0.75
2022-11-29T00:13:58.145Z,0.76
2022-11-29T00:17:36.363Z,0.69
2022-11-29T00:21:10.023Z,0.65
2022-11-29T00:24:36.569Z,0.74
2022-11-29T00:28:01.352Z,0.81
2022-11-29T00:31:22.826Z,0.77
2022-11-29T00:34:50.108Z,0.75
2022-11-29T00:38:07.138Z,0.83
2022-11-29T00:41:24.625Z,0.73
2022-11-29T00:45:04.343Z,0.76
2022-11-29T00:48:30.907Z,0.69
2022-11-29T00:52:11.262Z,0.67
2022-11-29T00:55:37.547Z,0.72
2022-11-29T00:59:32.069Z,0.69
2022-11-29T01:03:02.099Z,0.70
2022-11-29T01:06:42.388Z,0.57
2022-11-29T01:10:12.091Z,0.74
2022-11-29T01:13:49.056Z,0.63
2022-11-29T01:17:07.599Z,0.66
2022-11-29T01:20:36.715Z,0.67
2022-11-29T01:23:40.402Z,0.68
2022-11-29T01:26:57.622Z,0.69
2022-11-29T01:30:26.192Z,0.58
2022-11-29T01:34:02.762Z,0.66
2022-11-29T01:37:34.655Z,0.74
2022-11-29T01:40:57.812Z,0.70
2022-11-29T01:44:30.407Z,0.77
2022-11-29T01:47:58.522Z,0.69
2022-11-29T01:51:37.843Z,0.73
2022-11-29T01:55:07.902Z,0.66
2022-11-29T01:58:23.260Z,0.79
2022-11-29T02:01:40.554Z,0.79
2022-11-29T02:04:58.920Z,0.76
2022-11-29T02:08:38.370Z,0.65
2022-11-29T02:12:21.323Z,0.60
2022-11-29T02:16:05.506Z,0.60
2022-11-29T02:19:31.570Z,0.53
2022-11-29T02:23:21.695Z,0.54
2022-11-29T02:27:24.166Z,0.54
2022-11-29T02:31:20.079Z,0.51
2022-11-29T02:35:28.641Z,0.47
2022-11-29T02:39:03.040Z,0.55
2022-11-29T02:43:05.204Z,0.46
2022-11-29T02:46:10.913Z,0.44
2022-11-29T02:50:17.265Z,0.55
2022-11-29T02:53:58.667Z,0.43
2022-11-29T02:57:28.523Z,0.47
2022-11-29T03:01:22.062Z,0.47
2022-11-29T03:04:49.485Z,0.43
2022-11-29T03:09:01.469Z,0.41
2022-11-29T03:12:46.018Z,0.29
2022-11-29T03:16:43.613Z,0.26
2022-11-29T03:20:50.808Z,0.22
2022-11-29T03:24:25.206Z,0.34
2022-11-29T03:28:12.257Z,0.30
2022-11-29T03:32:02.949Z,0.23
2022-11-29T03:35:47.707Z,0.22
2022-11-29T03:39:07.985Z,0.25
2022-11-29T03:42:33.487Z,0.18
2022-11-29T03:46:03.353Z,0.28
2022-11-29T03:49:32.258Z,0.34
2022-11-29T03:52:57.356Z,0.38
2022-11-29T03:56:28.008Z,0.38
2022-11-29T04:00:13.663Z,0.40
2022-11-29T04:04:18.319Z,0.44
2022-11-29T04:08:02.140Z,0.39
2022-11-29T04:11:59.222Z,0.41
2022-11-29T04:15:46.920Z,0.39
2022-11-29T04:20:07.421Z,0.39
2022-11-29T04:23:31.376Z,0.37
2022-11-29T04:27:09.527Z,0.37
2022-11-29T04:30:58.814Z,0.37
2022-11-29T04:34:28.641Z,0.29
2022-11-29T04:38:13.235Z,0.46
2022-11-29T04:41:43.640Z,0.45
2022-11-29T04:45:39.243Z,0.49
2022-11-29T04:49:22.345Z,0.48
2022-11-29T04:53:20.767Z,0.37
2022-11-29T04:57:05.241Z,0.31
2022-11-29T05:00:24.714Z,0.37
2022-11-29T05:04:27.439Z,0.31
2022-11-29T05:08:27.312Z,0.41
2022-11-29T05:11:47.577Z,0.43
2022-11-29T05:15:28.002Z,0.28
2022-11-29T05:18:58.184Z,0.31
2022-11-29T05:22:28.478Z,0.42
2022-11-29T05:25:58.724Z,0.31
2022-11-29T05:30:15.105Z,0.35
2022-11-29T05:33:38.526Z,0.39
2022-11-29T05:37:37.303Z,0.36
2022-11-29T05:41:08.287Z,0.29
2022-11-29T05:44:36.912Z,0.28
2022-11-29T05:48:19.502Z,0.25
2022-11-29T05:52:14.466Z,0.17
2022-11-29T05:55:45.270Z,0.18
2022-11-29T05:59:23.555Z,0.16
2022-11-29T06:02:28.855Z,0.12
2022-11-29T06:06:10.342Z,0.18
2022-11-29T06:13:53.213Z,0.22
2022-11-29T06:17:49.179Z,0.24
2022-11-29T06:22:03.305Z,0.23
2022-11-29T06:26:13.510Z,0.24
2022-11-29T06:29:52.155Z,0.30
2022-11-29T06:33:30.465Z,0.31
2022-11-29T06:37:51.007Z,0.35
2022-11-29T06:41:18.242Z,0.44
2022-11-29T06:44:52.644Z,0.42
2022-11-29T06:49:02.329Z,0.46
2022-11-29T06:52:59.536Z,0.51
2022-11-29T06:56:30.510Z,0.59
2022-11-29T07:00:31.457Z,0.67
2022-11-29T07:04:11.204Z,0.76
2022-11-29T07:07:50.690Z,0.68
2022-11-29T07:11:25.137Z,0.59
2022-11-29T07:15:14.305Z,0.62
2022-11-29T07:23:32.831Z,0.74
2022-11-29T07:28:10.416Z,0.73
2022-11-29T07:31:33.688Z,0.70
2022-11-29T07:35:25.971Z,0.80
2022-11-29T07:39:11.165Z,0.93
2022-11-29T07:43:23.236Z,0.94
2022-11-29T07:46:30.627Z,0.92
2022-11-29T07:50:15.351Z,0.78
2022-11-29T07:53:56.446Z,0.72
2022-11-29T07:57:53.578Z,0.80
2022-11-29T08:01:12.984Z,0.92
2022-11-29T08:04:47.487Z,1.03
2022-11-29T08:08:13.736Z,1.17
2022-11-29T08:15:32.476Z,0.97
2022-11-29T08:23:51.942Z,1.10
2022-11-29T08:27:28.236Z,0.98
2022-11-29T08:39:21.204Z,1.12
2022-11-29T08:43:01.410Z,1.21
2022-11-29T08:46:59.198Z,1.09
2022-11-29T08:58:22.340Z,1.09
2022-11-29T09:01:47.302Z,1.40
2022-11-29T09:05:15.258Z,1.49
2022-11-29T09:08:47.063Z,1.54
2022-11-29T09:12:09.487Z,1.82
2022-11-29T09:15:29.507Z,1.85
2022-11-29T09:19:08.603Z,2.14
2022-11-29T09:22:46.534Z,2.34
2022-11-29T09:26:10.906Z,2.56
2022-11-29T09:29:24.186Z,2.57
2022-11-29T09:32:56.251Z,2.43
2022-11-29T09:36:28.859Z,2.35
2022-11-29T09:40:08.168Z,2.36
2022-11-29T09:44:02.504Z,2.56
2022-11-29T09:48:11.168Z,2.93
2022-11-29T09:52:36.307Z,3.02
2022-11-29T09:56:26.758Z,2.87
2022-11-29T09:59:49.909Z,3.10
2022-11-29T10:03:23.772Z,3.33
2022-11-29T10:07:32.621Z,3.08
2022-11-29T10:11:09.570Z,3.10
2022-11-29T10:14:44.869Z,2.80
2022-11-29T10:18:21.186Z,2.93
2022-11-29T10:22:20.682Z,2.91
2022-11-29T10:26:00.508Z,2.78
2022-11-29T10:29:28.030Z,2.85
2022-11-29T10:32:52.124Z,2.73
2022-11-29T10:40:37.044Z,3.06
2022-11-29T10:43:52.929Z,3.02
2022-11-29T10:47:25.114Z,2.92
2022-11-29T10:50:43.698Z,2.96
2022-11-29T10:54:56.522Z,3.06
2022-11-29T10:58:44.854Z,2.79
2022-11-29T11:02:22.373Z,3.01
2022-11-29T11:05:42.131Z,3.06
2022-11-29T11:09:35.526Z,2.98
2022-11-29T11:13:23.018Z,3.30
2022-11-29T11:17:14.375Z,3.59
2022-11-29T11:21:00.254Z,3.35
2022-11-29T11:24:42.614Z,3.31
2022-11-29T11:28:29.041Z,3.32
2022-11-29T11:32:00.687Z,3.31
2022-11-29T11:35:37.292Z,3.41
2022-11-29T11:39:23.775Z,3.25
2022-11-29T11:43:22.154Z,3.12
2022-11-29T11:46:51.839Z,3.12
2022-11-29T11:50:45.444Z,3.01
2022-11-29T11:54:18.417Z,2.99
2022-11-29T11:57:26.223Z,3.07
2022-11-29T12:01:13.375Z,3.10
2022-11-29T12:04:37.374Z,3.04
2022-11-29T12:08:20.246Z,3.20
2022-11-29T12:12:06.642Z,3.57
2022-11-29T12:15:45.034Z,3.56
2022-11-29T12:19:26.043Z,3.32
2022-11-29T12:23:11.398Z,3.35
2022-11-29T12:26:58.511Z,3.33
2022-11-29T12:30:19.262Z,3.59
2022-11-29T12:34:22.619Z,3.41
2022-11-29T12:38:40.670Z,3.54
2022-11-29T12:42:29.909Z,3.51
2022-11-29T12:46:11.745Z,3.62
2022-11-29T12:49:55.519Z,3.58
2022-11-29T12:53:56.380Z,3.66
2022-11-29T12:57:49.259Z,3.70
2022-11-29T13:01:51.481Z,3.70
2022-11-29T13:05:20.542Z,3.83
2022-11-29T13:09:30.169Z,3.82
2022-11-29T13:12:55.221Z,3.71
2022-11-29T13:16:43.352Z,3.79
2022-11-29T13:21:15.488Z,3.74
2022-11-29T13:25:13.177Z,3.69
2022-11-29T13:28:48.278Z,3.73
2022-11-29T13:32:33.288Z,3.54
2022-11-29T13:36:22.098Z,3.57
2022-11-29T13:40:03.202Z,3.60
2022-11-29T13:43:47.850Z,3.50
2022-11-29T13:47:24.891Z,3.41
2022-11-29T13:50:56.471Z,3.43
2022-11-29T13:54:32.812Z,3.50
2022-11-29T13:58:18.309Z,3.54
2022-11-29T14:01:47.361Z,3.41
2022-11-29T14:05:09.860Z,3.38
2022-11-29T14:12:41.339Z,3.35
2022-11-29T14:16:07.225Z,3.38
2022-11-29T14:19:32.813Z,3.35
2022-11-29T14:23:06.497Z,3.35
2022-11-29T14:26:41.116Z,3.36
2022-11-29T14:29:58.737Z,3.35
2022-11-29T14:33:24.244Z,3.30
2022-11-29T14:36:41.071Z,3.17
2022-11-29T14:40:29.143Z,3.12
2022-11-29T14:44:22.028Z,3.06
2022-11-29T14:47:52.292Z,3.02
2022-11-29T14:51:14.735Z,2.97
2022-11-29T14:54:56.632Z,2.97
2022-11-29T14:58:22.810Z,2.86
2022-11-29T15:01:56.144Z,2.80
2022-11-29T15:05:38.791Z,2.76
2022-11-29T15:09:17.354Z,2.75
2022-11-29T15:12:36.821Z,2.69
2022-11-29T15:16:34.359Z,2.69
2022-11-29T15:20:00.439Z,2.73
2022-11-29T15:23:42.722Z,2.79
2022-11-29T15:27:13.488Z,2.64
2022-11-29T15:30:49.023Z,2.62
2022-11-29T15:34:28.368Z,2.57
2022-11-29T15:37:49.741Z,2.63
2022-11-29T15:41:27.478Z,2.57
2022-11-29T15:45:00.531Z,2.51
2022-11-29T15:48:30.465Z,2.51
2022-11-29T15:52:18.526Z,2.48
2022-11-29T15:55:32.107Z,2.38
2022-11-29T15:59:36.708Z,2.43
2022-11-29T16:03:07.340Z,2.40
2022-11-29T16:06:44.901Z,2.44
2022-11-29T16:10:35.372Z,2.37
2022-11-29T16:14:25.308Z,2.47
2022-11-29T16:17:42.174Z,2.44
2022-11-29T16:21:23.273Z,2.49
2022-11-29T16:25:04.393Z,2.38
2022-11-29T16:28:47.898Z,2.40
2022-11-29T16:32:21.503Z,2.41
2022-11-29T16:35:51.844Z,2.41
2022-11-29T16:39:25.200Z,2.56
2022-11-29T16:42:46.508Z,2.58
2022-11-29T16:46:27.654Z,2.56
2022-11-29T16:50:22.732Z,2.66
2022-11-29T16:53:44.464Z,2.71
2022-11-29T16:57:15.599Z,2.70
2022-11-29T17:00:47.665Z,2.61
2022-11-29T17:04:02.507Z,2.53
2022-11-29T17:07:41.491Z,2.48
2022-11-29T17:11:11.859Z,2.40
2022-11-29T17:14:26.997Z,2.39
2022-11-29T17:18:01.709Z,2.40
2022-11-29T17:21:32.768Z,2.35
2022-11-29T17:24:56.979Z,2.22
2022-11-29T17:28:31.343Z,2.29
2022-11-29T17:31:50.564Z,2.36
2022-11-29T17:35:10.220Z,2.28
2022-11-29T17:38:36.987Z,2.27
2022-11-29T17:42:04.090Z,2.21
2022-11-29T17:45:18.356Z,2.21
2022-11-29T17:48:49.839Z,2.18
2022-11-29T17:52:20.020Z,2.19
2022-11-29T17:55:37.133Z,2.13
2022-11-29T17:58:56.010Z,2.12
2022-11-29T18:02:13.455Z,2.28
2022-11-29T18:05:34.778Z,2.21
2022-11-29T18:09:05.905Z,2.33
2022-11-29T18:12:20.600Z,2.31
2022-11-29T18:15:45.584Z,2.38
2022-11-29T18:19:20.405Z,2.38
2022-11-29T18:22:39.676Z,2.39
2022-11-29T18:26:20.344Z,2.43
2022-11-29T18:29:39.290Z,2.43
2022-11-29T18:33:05.811Z,2.47
2022-11-29T18:36:46.851Z,2.66
2022-11-29T18:40:03.792Z,2.54
2022-11-29T18:43:33.018Z,2.71
2022-11-29T18:46:51.218Z,2.63
2022-11-29T18:50:09.335Z,2.63
2022-11-29T18:53:26.300Z,2.60
2022-11-29T18:56:45.742Z,2.65
2022-11-29T19:00:17.463Z,2.66
2022-11-29T19:03:35.460Z,2.65
2022-11-29T19:07:04.242Z,2.70
2022-11-29T19:10:33.224Z,2.72
2022-11-29T19:14:03.411Z,2.72
2022-11-29T19:17:41.688Z,2.70
2022-11-29T19:21:18.982Z,2.72
2022-11-29T19:25:15.784Z,2.78
2022-11-29T19:28:30.382Z,2.77
2022-11-29T19:31:57.880Z,2.80
2022-11-29T19:35:29.939Z,2.81
2022-11-29T19:38:54.145Z,2.75
2022-11-29T19:42:13.186Z,2.84
2022-11-29T19:45:50.554Z,2.87
2022-11-29T19:49:35.635Z,2.81
2022-11-29T19:53:02.557Z,2.72
2022-11-29T19:56:35.577Z,2.77
2022-11-29T19:59:55.178Z,2.68
2022-11-29T20:03:15.599Z,2.71
2022-11-29T20:06:47.818Z,2.81
2022-11-29T20:10:08.699Z,2.71
2022-11-29T20:13:41.328Z,2.74
2022-11-29T20:17:14.418Z,2.68
2022-11-29T20:20:45.435Z,2.68
2022-11-29T20:24:06.423Z,2.71
2022-11-29T20:27:36.709Z,2.64
2022-11-29T20:31:22.376Z,2.69
2022-11-29T20:34:40.926Z,2.65
2022-11-29T20:38:48.404Z,2.61
2022-11-29T20:42:27.687Z,2.70
2022-11-29T20:45:46.169Z,2.70
2022-11-29T20:49:06.993Z,2.63
2022-11-29T20:52:44.672Z,2.69
2022-11-29T20:56:21.054Z,2.63
2022-11-29T20:59:54.668Z,2.60
2022-11-29T21:03:30.145Z,2.63
2022-11-29T21:06:59.718Z,2.67
2022-11-29T21:10:31.397Z,2.75
2022-11-29T21:14:14.128Z,2.69
2022-11-29T21:17:51.943Z,2.63
2022-11-29T21:21:43.213Z,2.68
2022-11-29T21:25:25.450Z,2.74
2022-11-29T21:29:21.159Z,2.68
2022-11-29T21:32:58.113Z,2.67
2022-11-29T21:36:32.750Z,2.70
2022-11-29T21:39:58.570Z,2.67
2022-11-29T21:44:04.516Z,2.69
2022-11-29T21:46:54.042Z,2.68
2022-11-29T21:50:21.352Z,2.70
2022-11-29T21:53:41.603Z,2.74
2022-11-29T21:57:14.984Z,2.71
2022-11-29T22:00:37.267Z,2.71
2022-11-29T22:03:53.667Z,2.76
2022-11-29T22:07:35.072Z,2.69
2022-11-29T22:11:00.012Z,2.66
2022-11-29T22:14:27.181Z,2.62
2022-11-29T22:17:46.233Z,2.71
2022-11-29T22:21:14.664Z,2.64
2022-11-29T22:24:55.296Z,2.50
2022-11-29T22:28:24.757Z,2.77
2022-11-29T22:32:03.293Z,2.67
2022-11-29T22:35:36.008Z,2.60
2022-11-29T22:39:13.457Z,2.62
2022-11-29T22:42:48.580Z,2.56
2022-11-29T22:46:29.092Z,2.52
2022-11-29T22:50:11.104Z,2.65
2022-11-29T22:53:48.264Z,2.55
2022-11-29T22:57:44.267Z,2.57
2022-11-29T23:01:23.274Z,2.54
2022-11-29T23:04:50.710Z,2.58
2022-11-29T23:08:19.243Z,2.60
2022-11-29T23:12:03.165Z,2.58
2022-11-29T23:19:42.571Z,2.57
2022-11-29T23:27:27.237Z,2.60
2022-11-29T23:31:04.967Z,2.71
2022-11-29T23:34:46.814Z,2.77
2022-11-29T23:38:26.759Z,2.75
2022-11-29T23:41:52.634Z,2.74
2022-11-29T23:50:08.502Z,2.71
2022-11-29T23:53:52.478Z,2.74
2022-11-29T23:57:18.968Z,2.71
